Ainsworth, Nebraska
Current Conditions -  °F | °C
As of 5:15 PM on Thursday 27 Nov 2014 (Local Time) from KANW Reporting Station
Clear Clear  
Wind Chill: -1°   Ceiling: Unl
Heat Index:   Visibility: 10mi
Dew Point: -6°   Wind: 12mph
Humidity: 53%   Direction: 160°SSE
Pressure: 29.99"   Gusts: NA
Location:  42.55°N, 99.86°W
Report Text: KANW 272315Z AUTO 16010KT 10SM CLR 03/M05 A2999 RMK AO2 T00321055
Loading
Personal Weather Stations






























Interactive Weather Map New forecast layout! Learn more

10-Day Weather Forecast

Advertisements
Track Severe Weather on mobile